OIAG  Aghajari  Airport

Aghajari,, Iran

Add Bookmark
ICAO OIAG
Type Airport
Status Operational
Latitude
30° 44' 39" N
30.744400
Longitude
49° 40' 37" E
49.677200
Local (DST + 5) UTC (GMT + 4)
Sep 1, 2015 04:17 Aug 31, 2015 23:47
Sunrise-Sunset Local UTC
Begin Civil Twilight 06:21 01:51
Sunrise 06:46 02:16
Sunset 07:36 15:06
End Civil Twilight 08:00 15:30
VFR
VFR
MVFR
MVFR
IFR
IFR
LIFR
LIFR
Unknown
Unavailable

Current Weather

METAR Observed VFR
OIAG 312000Z 21004KT CAVOK 35/00 Q1001 Mon, Aug 31, 2015 @ 20:00 UTC
(3 Hours, 47 Minutes ago)
Visual Flight Rules
Wind Visibility Conditions
210° at 4 knots (7 kph) 10 km or more
  • No significant weather
Temperatures Readings Precipitation
Current Temp
35°C
95°F
Dewpoint
0°C
32°F
Humidity 11%
Altimeter 29.56" Hg
Sea Level Pressure 1,001 mb
Field Elevation
29 m
95 ft
None Recorded

Additional weather within a 92.6km radius of OIAG

Map ICAO Location
OIAM 54.4km W/SW (248°)
VFR
VFR
MVFR
MVFR
IFR
IFR
LIFR
LIFR
Unknown
Unavailable
-
-

CheckWX.com is intended as a tool to help pilots better visualize weather data. It is not intended as a substitute for an official weather briefing obtained from a Flight Service Station. CheckWX.com does not meet the FAA requirements for an official pre-flight weather briefing. Therefore, it's important that pilots still call and obtain an official FSS pre-flight weather briefing.

© 2007-2015 CheckWX.com
23:47:23 UTC